sensor_id;sensor_type;location;lat;lon;timestamp;P1;durP1;ratioP1;P2;durP2;ratioP2
60211;SDS011;46079;48.686;15.598;2022-12-13T00:01:52;5.55;;;1.55;;
60211;SDS011;46079;48.686;15.598;2022-12-13T00:04:19;8.40;;;2.13;;
60211;SDS011;46079;48.686;15.598;2022-12-13T00:06:46;5.55;;;1.70;;
60211;SDS011;46079;48.686;15.598;2022-12-13T00:09:13;5.85;;;1.40;;
60211;SDS011;46079;48.686;15.598;2022-12-13T00:11:41;6.22;;;1.80;;
60211;SDS011;46079;48.686;15.598;2022-12-13T00:14:07;7.47;;;1.90;;
60211;SDS011;46079;48.686;15.598;2022-12-13T00:16:32;5.00;;;1.60;;
60211;SDS011;46079;48.686;15.598;2022-12-13T00:18:58;5.85;;;1.63;;
60211;SDS011;46079;48.686;15.598;2022-12-13T00:21:25;5.57;;;1.73;;
60211;SDS011;46079;48.686;15.598;2022-12-13T00:23:53;7.18;;;1.77;;
60211;SDS011;46079;48.686;15.598;2022-12-13T00:26:21;5.50;;;1.70;;
60211;SDS011;46079;48.686;15.598;2022-12-13T00:28:49;5.15;;;1.70;;
60211;SDS011;46079;48.686;15.598;2022-12-13T00:31:16;5.72;;;1.73;;
60211;SDS011;46079;48.686;15.598;2022-12-13T00:33:42;6.47;;;1.90;;
60211;SDS011;46079;48.686;15.598;2022-12-13T00:36:08;5.15;;;1.80;;
60211;SDS011;46079;48.686;15.598;2022-12-13T00:38:34;6.53;;;1.70;;
60211;SDS011;46079;48.686;15.598;2022-12-13T00:41:17;6.63;;;1.92;;
60211;SDS011;46079;48.686;15.598;2022-12-13T00:43:44;5.50;;;1.50;;
60211;SDS011;46079;48.686;15.598;2022-12-13T00:46:12;4.03;;;1.40;;
60211;SDS011;46079;48.686;15.598;2022-12-13T00:48:39;5.20;;;1.58;;
60211;SDS011;46079;48.686;15.598;2022-12-13T00:51:05;5.63;;;1.70;;
60211;SDS011;46079;48.686;15.598;2022-12-13T00:53:32;6.80;;;1.67;;
60211;SDS011;46079;48.686;15.598;2022-12-13T00:56:01;5.35;;;1.67;;
60211;SDS011;46079;48.686;15.598;2022-12-13T00:58:27;4.80;;;1.48;;
60211;SDS011;46079;48.686;15.598;2022-12-13T01:01:00;5.38;;;1.70;;
60211;SDS011;46079;48.686;15.598;2022-12-13T01:03:27;5.70;;;1.70;;
60211;SDS011;46079;48.686;15.598;2022-12-13T01:05:52;5.22;;;1.50;;
60211;SDS011;46079;48.686;15.598;2022-12-13T01:08:18;5.72;;;1.77;;
60211;SDS011;46079;48.686;15.598;2022-12-13T01:10:44;5.95;;;1.65;;
60211;SDS011;46079;48.686;15.598;2022-12-13T01:13:10;6.18;;;1.80;;
60211;SDS011;46079;48.686;15.598;2022-12-13T01:15:40;4.63;;;1.58;;
60211;SDS011;46079;48.686;15.598;2022-12-13T01:18:06;6.13;;;1.80;;
60211;SDS011;46079;48.686;15.598;2022-12-13T01:20:32;6.05;;;1.85;;
60211;SDS011;46079;48.686;15.598;2022-12-13T01:22:58;6.05;;;1.77;;
60211;SDS011;46079;48.686;15.598;2022-12-13T01:25:23;7.00;;;1.70;;
60211;SDS011;46079;48.686;15.598;2022-12-13T01:27:49;4.93;;;1.38;;
60211;SDS011;46079;48.686;15.598;2022-12-13T01:30:14;5.68;;;1.90;;
60211;SDS011;46079;48.686;15.598;2022-12-13T01:32:40;5.38;;;1.60;;
60211;SDS011;46079;48.686;15.598;2022-12-13T01:35:05;5.95;;;1.52;;
60211;SDS011;46079;48.686;15.598;2022-12-13T01:37:31;5.75;;;1.70;;
60211;SDS011;46079;48.686;15.598;2022-12-13T01:39:56;5.30;;;1.60;;
60211;SDS011;46079;48.686;15.598;2022-12-13T01:42:22;5.55;;;1.60;;
60211;SDS011;46079;48.686;15.598;2022-12-13T01:50:16;5.20;;;1.60;;
60211;SDS011;46079;48.686;15.598;2022-12-13T01:52:46;5.65;;;1.60;;
60211;SDS011;46079;48.686;15.598;2022-12-13T01:55:13;5.00;;;1.70;;
60211;SDS011;46079;48.686;15.598;2022-12-13T01:57:41;5.68;;;1.63;;
60211;SDS011;46079;48.686;15.598;2022-12-13T02:00:10;5.22;;;1.60;;
60211;SDS011;46079;48.686;15.598;2022-12-13T02:02:36;4.90;;;1.55;;
60211;SDS011;46079;48.686;15.598;2022-12-13T02:05:07;4.53;;;1.40;;
60211;SDS011;46079;48.686;15.598;2022-12-13T02:07:37;5.78;;;1.55;;
60211;SDS011;46079;48.686;15.598;2022-12-13T02:10:06;5.22;;;1.55;;
60211;SDS011;46079;48.686;15.598;2022-12-13T02:12:34;5.32;;;1.63;;
60211;SDS011;46079;48.686;15.598;2022-12-13T02:15:02;4.90;;;1.40;;
60211;SDS011;46079;48.686;15.598;2022-12-13T02:17:36;6.35;;;1.83;;
60211;SDS011;46079;48.686;15.598;2022-12-13T02:20:38;4.47;;;1.40;;
60211;SDS011;46079;48.686;15.598;2022-12-13T02:28:47;5.40;;;1.58;;
60211;SDS011;46079;48.686;15.598;2022-12-13T02:31:16;4.88;;;1.45;;
60211;SDS011;46079;48.686;15.598;2022-12-13T02:36:23;6.80;;;1.80;;
60211;SDS011;46079;48.686;15.598;2022-12-13T02:38:58;6.00;;;1.63;;
60211;SDS011;46079;48.686;15.598;2022-12-13T02:46:50;5.00;;;1.58;;
60211;SDS011;46079;48.686;15.598;2022-12-13T02:49:23;6.10;;;1.75;;
60211;SDS011;46079;48.686;15.598;2022-12-13T02:51:52;5.03;;;1.65;;
60211;SDS011;46079;48.686;15.598;2022-12-13T02:54:19;4.95;;;1.55;;
60211;SDS011;46079;48.686;15.598;2022-12-13T02:56:57;5.45;;;1.73;;
60211;SDS011;46079;48.686;15.598;2022-12-13T02:59:24;6.50;;;1.60;;
60211;SDS011;46079;48.686;15.598;2022-12-13T03:01:59;5.85;;;1.83;;
60211;SDS011;46079;48.686;15.598;2022-12-13T03:04:45;4.78;;;1.48;;
60211;SDS011;46079;48.686;15.598;2022-12-13T03:07:59;4.97;;;1.52;;
60211;SDS011;46079;48.686;15.598;2022-12-13T03:10:42;4.97;;;1.58;;
60211;SDS011;46079;48.686;15.598;2022-12-13T03:13:58;5.97;;;1.70;;
60211;SDS011;46079;48.686;15.598;2022-12-13T03:16:16;15.32;;;1.92;;
60211;SDS011;46079;48.686;15.598;2022-12-13T03:18:44;5.07;;;1.70;;
60211;SDS011;46079;48.686;15.598;2022-12-13T03:21:11;4.60;;;1.55;;
60211;SDS011;46079;48.686;15.598;2022-12-13T03:23:37;6.00;;;1.63;;
60211;SDS011;46079;48.686;15.598;2022-12-13T03:26:05;5.25;;;1.67;;
60211;SDS011;46079;48.686;15.598;2022-12-13T03:28:36;4.07;;;1.40;;
60211;SDS011;46079;48.686;15.598;2022-12-13T03:31:02;6.30;;;1.80;;
60211;SDS011;46079;48.686;15.598;2022-12-13T03:33:28;5.22;;;1.60;;
60211;SDS011;46079;48.686;15.598;2022-12-13T03:35:53;5.18;;;1.67;;
60211;SDS011;46079;48.686;15.598;2022-12-13T03:38:19;5.10;;;1.60;;
60211;SDS011;46079;48.686;15.598;2022-12-13T03:40:45;5.90;;;1.80;;
60211;SDS011;46079;48.686;15.598;2022-12-13T03:43:11;6.35;;;2.00;;
60211;SDS011;46079;48.686;15.598;2022-12-13T03:45:36;6.30;;;1.67;;
60211;SDS011;46079;48.686;15.598;2022-12-13T03:48:02;6.03;;;1.85;;
60211;SDS011;46079;48.686;15.598;2022-12-13T03:50:27;5.40;;;1.60;;
60211;SDS011;46079;48.686;15.598;2022-12-13T03:52:59;5.15;;;1.77;;
60211;SDS011;46079;48.686;15.598;2022-12-13T03:55:26;5.60;;;1.90;;
60211;SDS011;46079;48.686;15.598;2022-12-13T03:57:52;5.43;;;1.90;;
60211;SDS011;46079;48.686;15.598;2022-12-13T04:00:18;6.30;;;1.75;;
60211;SDS011;46079;48.686;15.598;2022-12-13T04:02:44;4.95;;;1.60;;
60211;SDS011;46079;48.686;15.598;2022-12-13T04:05:09;6.00;;;1.70;;
60211;SDS011;46079;48.686;15.598;2022-12-13T04:07:35;4.82;;;1.58;;
60211;SDS011;46079;48.686;15.598;2022-12-13T04:10:01;5.72;;;1.67;;
60211;SDS011;46079;48.686;15.598;2022-12-13T04:12:27;6.03;;;1.75;;
60211;SDS011;46079;48.686;15.598;2022-12-13T04:15:11;5.20;;;1.60;;
60211;SDS011;46079;48.686;15.598;2022-12-13T04:17:36;4.90;;;1.70;;
60211;SDS011;46079;48.686;15.598;2022-12-13T04:20:02;4.63;;;1.40;;
60211;SDS011;46079;48.686;15.598;2022-12-13T04:22:28;5.63;;;1.50;;
60211;SDS011;46079;48.686;15.598;2022-12-13T04:24:53;5.05;;;1.73;;
60211;SDS011;46079;48.686;15.598;2022-12-13T04:27:19;5.22;;;1.60;;
60211;SDS011;46079;48.686;15.598;2022-12-13T04:29:47;5.85;;;1.77;;
60211;SDS011;46079;48.686;15.598;2022-12-13T04:32:13;5.13;;;1.75;;
60211;SDS011;46079;48.686;15.598;2022-12-13T04:34:38;5.40;;;1.63;;
60211;SDS011;46079;48.686;15.598;2022-12-13T04:37:04;4.68;;;1.58;;
60211;SDS011;46079;48.686;15.598;2022-12-13T04:39:29;5.38;;;1.88;;
60211;SDS011;46079;48.686;15.598;2022-12-13T04:41:55;5.82;;;1.80;;
60211;SDS011;46079;48.686;15.598;2022-12-13T04:44:20;5.43;;;1.50;;
60211;SDS011;46079;48.686;15.598;2022-12-13T04:46:46;4.80;;;1.50;;
60211;SDS011;46079;48.686;15.598;2022-12-13T04:49:11;6.70;;;1.83;;
60211;SDS011;46079;48.686;15.598;2022-12-13T04:51:36;5.45;;;1.58;;
60211;SDS011;46079;48.686;15.598;2022-12-13T04:54:02;6.03;;;1.73;;
60211;SDS011;46079;48.686;15.598;2022-12-13T04:56:27;5.43;;;1.65;;
60211;SDS011;46079;48.686;15.598;2022-12-13T04:58:53;5.07;;;1.63;;
60211;SDS011;46079;48.686;15.598;2022-12-13T05:01:18;5.65;;;1.80;;
60211;SDS011;46079;48.686;15.598;2022-12-13T05:03:44;5.43;;;1.70;;
60211;SDS011;46079;48.686;15.598;2022-12-13T05:06:10;6.18;;;1.90;;
60211;SDS011;46079;48.686;15.598;2022-12-13T05:08:37;4.75;;;1.55;;
60211;SDS011;46079;48.686;15.598;2022-12-13T05:11:04;5.90;;;1.60;;
60211;SDS011;46079;48.686;15.598;2022-12-13T05:13:30;5.20;;;1.70;;
60211;SDS011;46079;48.686;15.598;2022-12-13T05:18:21;5.85;;;1.80;;
60211;SDS011;46079;48.686;15.598;2022-12-13T05:20:47;5.63;;;1.88;;
60211;SDS011;46079;48.686;15.598;2022-12-13T05:23:15;6.28;;;1.90;;
60211;SDS011;46079;48.686;15.598;2022-12-13T05:25:41;4.82;;;1.60;;
60211;SDS011;46079;48.686;15.598;2022-12-13T05:28:06;6.20;;;1.95;;
60211;SDS011;46079;48.686;15.598;2022-12-13T05:30:32;5.82;;;1.98;;
60211;SDS011;46079;48.686;15.598;2022-12-13T05:32:57;5.72;;;1.73;;
60211;SDS011;46079;48.686;15.598;2022-12-13T05:35:23;5.43;;;1.70;;
60211;SDS011;46079;48.686;15.598;2022-12-13T05:37:51;5.25;;;1.70;;
60211;SDS011;46079;48.686;15.598;2022-12-13T05:40:17;5.88;;;1.80;;
60211;SDS011;46079;48.686;15.598;2022-12-13T05:42:43;5.65;;;1.70;;
60211;SDS011;46079;48.686;15.598;2022-12-13T05:45:08;5.60;;;1.70;;
60211;SDS011;46079;48.686;15.598;2022-12-13T05:47:41;5.10;;;1.60;;
60211;SDS011;46079;48.686;15.598;2022-12-13T05:50:06;5.63;;;1.80;;
60211;SDS011;46079;48.686;15.598;2022-12-13T05:52:32;5.63;;;1.90;;
60211;SDS011;46079;48.686;15.598;2022-12-13T05:54:57;6.15;;;1.80;;
60211;SDS011;46079;48.686;15.598;2022-12-13T05:57:23;5.68;;;1.70;;
60211;SDS011;46079;48.686;15.598;2022-12-13T05:59:48;5.43;;;1.83;;
60211;SDS011;46079;48.686;15.598;2022-12-13T06:02:14;5.50;;;1.80;;
60211;SDS011;46079;48.686;15.598;2022-12-13T06:04:42;5.95;;;1.80;;
60211;SDS011;46079;48.686;15.598;2022-12-13T06:07:09;6.85;;;2.00;;
60211;SDS011;46079;48.686;15.598;2022-12-13T06:09:35;5.88;;;1.95;;
60211;SDS011;46079;48.686;15.598;2022-12-13T06:12:00;5.88;;;1.85;;
60211;SDS011;46079;48.686;15.598;2022-12-13T06:14:25;6.72;;;1.90;;
60211;SDS011;46079;48.686;15.598;2022-12-13T06:16:51;5.88;;;1.80;;
60211;SDS011;46079;48.686;15.598;2022-12-13T06:19:16;6.07;;;1.75;;
60211;SDS011;46079;48.686;15.598;2022-12-13T06:21:42;6.57;;;2.05;;
60211;SDS011;46079;48.686;15.598;2022-12-13T06:24:08;5.70;;;1.77;;
60211;SDS011;46079;48.686;15.598;2022-12-13T06:26:33;6.63;;;2.20;;
60211;SDS011;46079;48.686;15.598;2022-12-13T06:28:58;5.95;;;1.90;;
60211;SDS011;46079;48.686;15.598;2022-12-13T06:31:24;5.63;;;1.73;;
60211;SDS011;46079;48.686;15.598;2022-12-13T06:33:49;5.93;;;1.77;;
60211;SDS011;46079;48.686;15.598;2022-12-13T06:36:15;5.95;;;1.70;;
60211;SDS011;46079;48.686;15.598;2022-12-13T06:38:40;5.82;;;1.80;;
60211;SDS011;46079;48.686;15.598;2022-12-13T06:41:10;5.97;;;1.90;;
60211;SDS011;46079;48.686;15.598;2022-12-13T06:43:41;5.88;;;1.90;;
60211;SDS011;46079;48.686;15.598;2022-12-13T06:46:08;6.00;;;1.70;;
60211;SDS011;46079;48.686;15.598;2022-12-13T06:48:33;6.05;;;1.98;;
60211;SDS011;46079;48.686;15.598;2022-12-13T06:51:00;6.43;;;2.13;;
60211;SDS011;46079;48.686;15.598;2022-12-13T06:53:28;5.97;;;1.80;;
60211;SDS011;46079;48.686;15.598;2022-12-13T06:55:54;5.22;;;1.70;;
60211;SDS011;46079;48.686;15.598;2022-12-13T06:58:20;6.22;;;1.90;;
60211;SDS011;46079;48.686;15.598;2022-12-13T07:00:45;5.80;;;1.95;;
60211;SDS011;46079;48.686;15.598;2022-12-13T07:03:11;5.90;;;1.80;;
60211;SDS011;46079;48.686;15.598;2022-12-13T07:05:37;5.78;;;1.80;;
60211;SDS011;46079;48.686;15.598;2022-12-13T07:08:03;5.90;;;1.90;;
60211;SDS011;46079;48.686;15.598;2022-12-13T07:10:29;5.40;;;1.60;;
60211;SDS011;46079;48.686;15.598;2022-12-13T07:12:55;6.25;;;1.90;;
60211;SDS011;46079;48.686;15.598;2022-12-13T07:15:21;5.13;;;1.73;;
60211;SDS011;46079;48.686;15.598;2022-12-13T07:17:49;5.88;;;1.63;;
60211;SDS011;46079;48.686;15.598;2022-12-13T07:20:15;5.70;;;1.98;;
60211;SDS011;46079;48.686;15.598;2022-12-13T07:22:43;6.03;;;1.95;;
60211;SDS011;46079;48.686;15.598;2022-12-13T07:25:08;4.78;;;1.58;;
60211;SDS011;46079;48.686;15.598;2022-12-13T07:27:34;5.32;;;1.73;;
60211;SDS011;46079;48.686;15.598;2022-12-13T07:29:59;5.25;;;1.80;;
60211;SDS011;46079;48.686;15.598;2022-12-13T07:32:25;5.53;;;1.70;;
60211;SDS011;46079;48.686;15.598;2022-12-13T07:34:50;5.88;;;1.67;;
60211;SDS011;46079;48.686;15.598;2022-12-13T07:37:16;5.82;;;1.70;;
60211;SDS011;46079;48.686;15.598;2022-12-13T07:39:42;5.43;;;1.60;;
60211;SDS011;46079;48.686;15.598;2022-12-13T07:42:07;6.15;;;1.70;;
60211;SDS011;46079;48.686;15.598;2022-12-13T07:44:33;5.78;;;1.90;;
60211;SDS011;46079;48.686;15.598;2022-12-13T07:46:58;5.93;;;1.80;;
60211;SDS011;46079;48.686;15.598;2022-12-13T07:49:24;5.30;;;1.80;;
60211;SDS011;46079;48.686;15.598;2022-12-13T07:51:49;5.97;;;2.00;;
60211;SDS011;46079;48.686;15.598;2022-12-13T07:54:15;5.45;;;1.75;;
60211;SDS011;46079;48.686;15.598;2022-12-13T07:56:40;6.32;;;1.80;;
60211;SDS011;46079;48.686;15.598;2022-12-13T07:59:06;5.82;;;1.80;;
60211;SDS011;46079;48.686;15.598;2022-12-13T08:01:32;6.82;;;1.90;;
60211;SDS011;46079;48.686;15.598;2022-12-13T08:04:01;6.45;;;2.00;;
60211;SDS011;46079;48.686;15.598;2022-12-13T08:06:27;6.05;;;1.92;;
60211;SDS011;46079;48.686;15.598;2022-12-13T08:08:56;5.32;;;1.65;;
60211;SDS011;46079;48.686;15.598;2022-12-13T08:11:22;7.47;;;2.10;;
60211;SDS011;46079;48.686;15.598;2022-12-13T08:13:47;6.13;;;1.88;;
60211;SDS011;46079;48.686;15.598;2022-12-13T08:16:13;5.85;;;1.90;;
60211;SDS011;46079;48.686;15.598;2022-12-13T08:18:42;6.07;;;1.77;;
60211;SDS011;46079;48.686;15.598;2022-12-13T08:21:08;5.50;;;1.85;;
60211;SDS011;46079;48.686;15.598;2022-12-13T08:23:34;6.88;;;1.92;;
60211;SDS011;46079;48.686;15.598;2022-12-13T08:26:01;5.82;;;2.00;;
60211;SDS011;46079;48.686;15.598;2022-12-13T08:28:27;8.90;;;2.10;;
60211;SDS011;46079;48.686;15.598;2022-12-13T08:30:55;10.70;;;5.10;;
60211;SDS011;46079;48.686;15.598;2022-12-13T08:33:26;12.98;;;6.45;;
60211;SDS011;46079;48.686;15.598;2022-12-13T08:35:51;13.18;;;6.40;;
60211;SDS011;46079;48.686;15.598;2022-12-13T08:38:17;9.73;;;4.28;;
60211;SDS011;46079;48.686;15.598;2022-12-13T08:40:42;8.80;;;3.63;;
60211;SDS011;46079;48.686;15.598;2022-12-13T08:43:07;9.25;;;3.47;;
60211;SDS011;46079;48.686;15.598;2022-12-13T08:45:33;8.80;;;3.80;;
60211;SDS011;46079;48.686;15.598;2022-12-13T08:47:59;8.40;;;3.47;;
60211;SDS011;46079;48.686;15.598;2022-12-13T08:50:26;7.75;;;2.95;;
60211;SDS011;46079;48.686;15.598;2022-12-13T08:52:52;7.20;;;2.80;;
60211;SDS011;46079;48.686;15.598;2022-12-13T08:55:17;7.50;;;2.60;;
60211;SDS011;46079;48.686;15.598;2022-12-13T08:57:43;7.55;;;2.53;;
60211;SDS011;46079;48.686;15.598;2022-12-13T09:00:11;7.38;;;2.60;;
60211;SDS011;46079;48.686;15.598;2022-12-13T09:02:41;7.20;;;2.30;;
60211;SDS011;46079;48.686;15.598;2022-12-13T09:05:07;7.30;;;2.72;;
60211;SDS011;46079;48.686;15.598;2022-12-13T09:07:34;6.13;;;2.17;;
60211;SDS011;46079;48.686;15.598;2022-12-13T09:10:00;6.93;;;2.60;;
60211;SDS011;46079;48.686;15.598;2022-12-13T09:12:26;7.13;;;2.40;;
60211;SDS011;46079;48.686;15.598;2022-12-13T09:14:51;6.85;;;2.30;;
60211;SDS011;46079;48.686;15.598;2022-12-13T09:17:17;6.30;;;2.20;;
60211;SDS011;46079;48.686;15.598;2022-12-13T09:19:43;6.88;;;2.20;;
60211;SDS011;46079;48.686;15.598;2022-12-13T09:22:08;6.13;;;2.20;;
60211;SDS011;46079;48.686;15.598;2022-12-13T09:24:34;7.03;;;2.50;;
60211;SDS011;46079;48.686;15.598;2022-12-13T09:26:59;6.43;;;2.20;;
60211;SDS011;46079;48.686;15.598;2022-12-13T09:29:24;7.65;;;2.40;;
60211;SDS011;46079;48.686;15.598;2022-12-13T09:31:50;7.70;;;2.33;;
60211;SDS011;46079;48.686;15.598;2022-12-13T09:34:16;6.68;;;2.20;;
60211;SDS011;46079;48.686;15.598;2022-12-13T09:36:41;6.63;;;2.15;;
60211;SDS011;46079;48.686;15.598;2022-12-13T09:39:07;7.68;;;2.40;;
60211;SDS011;46079;48.686;15.598;2022-12-13T09:41:34;6.70;;;2.05;;
60211;SDS011;46079;48.686;15.598;2022-12-13T09:44:05;6.85;;;2.42;;
60211;SDS011;46079;48.686;15.598;2022-12-13T09:46:39;8.55;;;2.25;;
60211;SDS011;46079;48.686;15.598;2022-12-13T09:49:21;7.70;;;2.15;;
60211;SDS011;46079;48.686;15.598;2022-12-13T09:51:51;6.67;;;2.30;;
60211;SDS011;46079;48.686;15.598;2022-12-13T09:54:20;7.60;;;2.65;;
60211;SDS011;46079;48.686;15.598;2022-12-13T09:56:48;11.23;;;2.80;;
60211;SDS011;46079;48.686;15.598;2022-12-13T09:59:17;14.75;;;3.65;;
60211;SDS011;46079;48.686;15.598;2022-12-13T10:01:50;13.18;;;3.55;;
60211;SDS011;46079;48.686;15.598;2022-12-13T10:04:15;12.95;;;3.80;;
60211;SDS011;46079;48.686;15.598;2022-12-13T10:06:42;15.30;;;4.00;;
60211;SDS011;46079;48.686;15.598;2022-12-13T10:09:09;11.07;;;3.60;;
60211;SDS011;46079;48.686;15.598;2022-12-13T10:11:44;15.48;;;4.47;;
60211;SDS011;46079;48.686;15.598;2022-12-13T10:14:12;14.02;;;3.60;;
60211;SDS011;46079;48.686;15.598;2022-12-13T10:16:46;12.00;;;3.95;;
60211;SDS011;46079;48.686;15.598;2022-12-13T10:22:17;10.85;;;3.47;;
60211;SDS011;46079;48.686;15.598;2022-12-13T10:30:08;13.02;;;3.45;;
60211;SDS011;46079;48.686;15.598;2022-12-13T10:32:51;13.02;;;3.67;;
60211;SDS011;46079;48.686;15.598;2022-12-13T10:37:51;11.77;;;3.70;;
60211;SDS011;46079;48.686;15.598;2022-12-13T10:40:25;13.05;;;3.65;;
60211;SDS011;46079;48.686;15.598;2022-12-13T10:51:09;12.32;;;3.45;;
60211;SDS011;46079;48.686;15.598;2022-12-13T10:56:15;11.95;;;3.25;;
60211;SDS011;46079;48.686;15.598;2022-12-13T10:58:42;10.02;;;3.10;;
60211;SDS011;46079;48.686;15.598;2022-12-13T11:03:41;11.18;;;3.33;;
60211;SDS011;46079;48.686;15.598;2022-12-13T11:06:13;11.05;;;3.30;;
60211;SDS011;46079;48.686;15.598;2022-12-13T11:08:42;9.27;;;3.00;;
60211;SDS011;46079;48.686;15.598;2022-12-13T11:11:08;10.50;;;3.05;;
60211;SDS011;46079;48.686;15.598;2022-12-13T11:18:51;10.52;;;3.08;;
60211;SDS011;46079;48.686;15.598;2022-12-13T11:21:25;9.50;;;3.05;;
60211;SDS011;46079;48.686;15.598;2022-12-13T11:23:53;9.57;;;2.95;;
60211;SDS011;46079;48.686;15.598;2022-12-13T11:26:21;9.00;;;3.10;;
60211;SDS011;46079;48.686;15.598;2022-12-13T11:28:56;8.90;;;2.65;;
60211;SDS011;46079;48.686;15.598;2022-12-13T11:32:05;9.95;;;2.97;;
60211;SDS011;46079;48.686;15.598;2022-12-13T11:40:24;9.93;;;2.80;;
60211;SDS011;46079;48.686;15.598;2022-12-13T11:45:51;9.10;;;2.70;;
60211;SDS011;46079;48.686;15.598;2022-12-13T11:50:52;9.23;;;2.70;;
60211;SDS011;46079;48.686;15.598;2022-12-13T12:02:32;8.27;;;2.70;;
60211;SDS011;46079;48.686;15.598;2022-12-13T12:04:51;8.90;;;3.00;;
60211;SDS011;46079;48.686;15.598;2022-12-13T12:12:41;8.75;;;2.63;;
60211;SDS011;46079;48.686;15.598;2022-12-13T12:15:46;9.05;;;2.60;;
60211;SDS011;46079;48.686;15.598;2022-12-13T12:18:13;8.27;;;2.55;;
60211;SDS011;46079;48.686;15.598;2022-12-13T12:23:21;9.20;;;3.15;;
60211;SDS011;46079;48.686;15.598;2022-12-13T12:25:54;9.98;;;2.90;;
60211;SDS011;46079;48.686;15.598;2022-12-13T12:31:14;9.87;;;2.80;;
60211;SDS011;46079;48.686;15.598;2022-12-13T12:33:58;10.93;;;3.05;;
60211;SDS011;46079;48.686;15.598;2022-12-13T12:44:59;8.93;;;2.60;;
60211;SDS011;46079;48.686;15.598;2022-12-13T12:50:34;8.45;;;2.70;;
60211;SDS011;46079;48.686;15.598;2022-12-13T12:55:50;9.63;;;2.45;;
60211;SDS011;46079;48.686;15.598;2022-12-13T13:01:26;9.88;;;2.83;;
60211;SDS011;46079;48.686;15.598;2022-12-13T13:03:47;8.30;;;2.50;;
60211;SDS011;46079;48.686;15.598;2022-12-13T13:06:20;7.97;;;2.40;;
60211;SDS011;46079;48.686;15.598;2022-12-13T13:11:23;8.35;;;2.70;;
60211;SDS011;46079;48.686;15.598;2022-12-13T13:19:00;7.95;;;2.45;;
60211;SDS011;46079;48.686;15.598;2022-12-13T13:24:04;8.13;;;2.55;;
60211;SDS011;46079;48.686;15.598;2022-12-13T13:26:40;7.78;;;2.50;;
60211;SDS011;46079;48.686;15.598;2022-12-13T13:29:20;6.72;;;2.25;;
60211;SDS011;46079;48.686;15.598;2022-12-13T13:42:29;7.50;;;2.20;;
60211;SDS011;46079;48.686;15.598;2022-12-13T13:58:48;7.38;;;2.88;;
60211;SDS011;46079;48.686;15.598;2022-12-13T14:01:16;8.38;;;2.50;;
60211;SDS011;46079;48.686;15.598;2022-12-13T14:04:08;7.93;;;2.40;;
60211;SDS011;46079;48.686;15.598;2022-12-13T14:15:27;8.70;;;2.53;;
60211;SDS011;46079;48.686;15.598;2022-12-13T14:21:07;7.75;;;3.08;;
60211;SDS011;46079;48.686;15.598;2022-12-13T14:23:46;7.38;;;2.60;;
60211;SDS011;46079;48.686;15.598;2022-12-13T14:26:43;6.70;;;2.28;;
60211;SDS011;46079;48.686;15.598;2022-12-13T14:29:33;5.82;;;1.98;;
60211;SDS011;46079;48.686;15.598;2022-12-13T14:32:21;7.80;;;2.42;;
60211;SDS011;46079;48.686;15.598;2022-12-13T14:34:51;8.10;;;2.55;;
60211;SDS011;46079;48.686;15.598;2022-12-13T14:37:27;7.60;;;2.20;;
60211;SDS011;46079;48.686;15.598;2022-12-13T14:39:55;9.32;;;2.65;;
60211;SDS011;46079;48.686;15.598;2022-12-13T14:42:23;8.27;;;2.50;;
60211;SDS011;46079;48.686;15.598;2022-12-13T14:47:39;8.52;;;2.30;;
60211;SDS011;46079;48.686;15.598;2022-12-13T14:50:06;7.13;;;2.40;;
60211;SDS011;46079;48.686;15.598;2022-12-13T14:52:34;6.80;;;2.28;;
60211;SDS011;46079;48.686;15.598;2022-12-13T14:55:04;7.53;;;2.30;;
60211;SDS011;46079;48.686;15.598;2022-12-13T14:57:31;7.32;;;2.50;;
60211;SDS011;46079;48.686;15.598;2022-12-13T14:59:59;7.90;;;2.50;;
60211;SDS011;46079;48.686;15.598;2022-12-13T15:02:49;7.03;;;2.17;;
60211;SDS011;46079;48.686;15.598;2022-12-13T15:05:18;6.78;;;2.10;;
60211;SDS011;46079;48.686;15.598;2022-12-13T15:07:49;6.93;;;2.00;;
60211;SDS011;46079;48.686;15.598;2022-12-13T15:10:33;7.55;;;2.47;;
60211;SDS011;46079;48.686;15.598;2022-12-13T15:13:06;8.38;;;2.95;;
60211;SDS011;46079;48.686;15.598;2022-12-13T15:15:42;7.32;;;2.22;;
60211;SDS011;46079;48.686;15.598;2022-12-13T15:20:37;6.93;;;2.30;;
60211;SDS011;46079;48.686;15.598;2022-12-13T15:23:49;7.72;;;2.22;;
60211;SDS011;46079;48.686;15.598;2022-12-13T15:25:57;7.50;;;2.30;;
60211;SDS011;46079;48.686;15.598;2022-12-13T15:28:34;7.43;;;2.20;;
60211;SDS011;46079;48.686;15.598;2022-12-13T15:31:03;6.95;;;2.25;;
60211;SDS011;46079;48.686;15.598;2022-12-13T15:33:30;7.35;;;2.30;;
60211;SDS011;46079;48.686;15.598;2022-12-13T15:36:00;7.10;;;2.05;;
60211;SDS011;46079;48.686;15.598;2022-12-13T15:38:29;7.10;;;2.22;;
60211;SDS011;46079;48.686;15.598;2022-12-13T15:40:55;6.88;;;2.20;;
60211;SDS011;46079;48.686;15.598;2022-12-13T15:43:21;6.95;;;2.33;;
60211;SDS011;46079;48.686;15.598;2022-12-13T15:45:50;7.40;;;2.15;;
60211;SDS011;46079;48.686;15.598;2022-12-13T15:48:26;7.60;;;2.40;;
60211;SDS011;46079;48.686;15.598;2022-12-13T15:51:05;8.10;;;2.25;;
60211;SDS011;46079;48.686;15.598;2022-12-13T15:53:36;7.18;;;2.30;;
60211;SDS011;46079;48.686;15.598;2022-12-13T15:59:27;7.15;;;2.30;;
60211;SDS011;46079;48.686;15.598;2022-12-13T16:01:55;6.55;;;2.20;;
60211;SDS011;46079;48.686;15.598;2022-12-13T16:04:22;7.40;;;2.25;;
60211;SDS011;46079;48.686;15.598;2022-12-13T16:06:50;6.90;;;2.13;;
60211;SDS011;46079;48.686;15.598;2022-12-13T16:09:20;7.25;;;2.20;;
60211;SDS011;46079;48.686;15.598;2022-12-13T16:11:59;8.20;;;2.53;;
60211;SDS011;46079;48.686;15.598;2022-12-13T16:17:00;8.75;;;2.30;;
60211;SDS011;46079;48.686;15.598;2022-12-13T16:19:30;7.75;;;2.40;;
60211;SDS011;46079;48.686;15.598;2022-12-13T16:21:56;8.48;;;2.00;;
60211;SDS011;46079;48.686;15.598;2022-12-13T16:24:21;7.90;;;2.45;;
60211;SDS011;46079;48.686;15.598;2022-12-13T16:26:47;6.57;;;2.10;;
60211;SDS011;46079;48.686;15.598;2022-12-13T16:29:13;7.05;;;2.30;;
60211;SDS011;46079;48.686;15.598;2022-12-13T16:31:43;9.07;;;2.50;;
60211;SDS011;46079;48.686;15.598;2022-12-13T16:34:09;7.07;;;2.30;;
60211;SDS011;46079;48.686;15.598;2022-12-13T16:36:34;6.90;;;2.10;;
60211;SDS011;46079;48.686;15.598;2022-12-13T16:39:00;7.05;;;2.17;;
60211;SDS011;46079;48.686;15.598;2022-12-13T16:41:26;8.00;;;2.53;;
60211;SDS011;46079;48.686;15.598;2022-12-13T16:43:55;7.55;;;2.30;;
60211;SDS011;46079;48.686;15.598;2022-12-13T16:46:23;8.57;;;2.53;;
60211;SDS011;46079;48.686;15.598;2022-12-13T16:48:49;7.18;;;2.10;;
60211;SDS011;46079;48.686;15.598;2022-12-13T16:51:15;9.52;;;2.75;;
60211;SDS011;46079;48.686;15.598;2022-12-13T16:53:40;7.38;;;2.28;;
60211;SDS011;46079;48.686;15.598;2022-12-13T16:56:06;6.47;;;2.30;;
60211;SDS011;46079;48.686;15.598;2022-12-13T16:58:35;7.72;;;2.70;;
60211;SDS011;46079;48.686;15.598;2022-12-13T17:01:06;8.13;;;2.72;;
60211;SDS011;46079;48.686;15.598;2022-12-13T17:03:33;6.43;;;2.25;;
60211;SDS011;46079;48.686;15.598;2022-12-13T17:05:58;7.45;;;2.50;;
60211;SDS011;46079;48.686;15.598;2022-12-13T17:08:24;6.90;;;2.40;;
60211;SDS011;46079;48.686;15.598;2022-12-13T17:10:50;7.72;;;2.50;;
60211;SDS011;46079;48.686;15.598;2022-12-13T17:13:15;7.07;;;2.35;;
60211;SDS011;46079;48.686;15.598;2022-12-13T17:15:41;6.38;;;2.35;;
60211;SDS011;46079;48.686;15.598;2022-12-13T17:18:06;9.18;;;2.67;;
60211;SDS011;46079;48.686;15.598;2022-12-13T17:20:32;7.65;;;2.50;;